Time;durP1;ratioP1;P1;durP2;ratioP2;P2;SDS_P1;SDS_P2;PMS_P1;PMS_P2;Temp;Humidity;BMP_temperature;BMP_pressure;BME280_temperature;BME280_humidity;BME280_pressure;Samples;Min_cycle;Max_cycle;Signal;HPM_P1;HPM_P2
2021/03/28 00:01:59;;;;;;;31.30;19.52;;;9.40;99.90;;;;;;4947050;28;20027;-71
2021/03/28 00:04:28;;;;;;;31.50;19.33;;;9.50;99.90;;;;;;4949079;28;20039;-71
2021/03/28 00:07:01;;;;;;;32.10;20.55;;;9.60;99.90;;;;;;4953216;28;20051;-71
2021/03/28 00:09:36;;;;;;;28.98;19.58;;;9.70;99.90;;;;;;4995610;28;20155;-71
2021/03/28 00:12:24;;;;;;;33.85;18.70;;;9.60;99.90;;;;;;4953108;28;20140;-71
2021/03/28 00:14:57;;;;;;;26.63;18.55;;;9.50;99.90;;;;;;4948471;28;20557;-71
2021/03/28 00:17:37;;;;;;;32.58;20.80;;;9.40;99.90;;;;;;4952999;28;20054;-71
2021/03/28 00:20:11;;;;;;;31.55;19.23;;;9.40;99.90;;;;;;4953548;28;20027;-71
2021/03/28 00:22:42;;;;;;;31.48;19.02;;;9.30;99.90;;;;;;4946860;28;20039;-71
2021/03/28 00:25:43;;;;;;;36.10;19.77;;;9.40;99.90;;;;;;4953523;28;20166;-71
2021/03/28 00:28:23;;;;;;;27.05;17.25;;;9.50;99.90;;;;;;4959368;28;20405;-71
2021/03/28 00:30:50;;;;;;;32.30;19.83;;;9.40;99.90;;;;;;4957705;28;20042;-71
2021/03/28 00:33:24;;;;;;;29.98;19.20;;;9.30;99.90;;;;;;4955164;28;20027;-71
2021/03/28 00:35:55;;;;;;;33.15;20.25;;;9.40;99.90;;;;;;4957433;28;20062;-71
2021/03/28 00:38:24;;;;;;;31.15;19.20;;;9.50;99.90;;;;;;4953630;28;20063;-71
2021/03/28 00:41:21;;;;;;;30.50;17.98;;;9.50;99.90;;;;;;4957886;28;20139;-71
2021/03/28 00:43:55;;;;;;;30.42;17.77;;;9.40;99.90;;;;;;4937367;28;20467;-70
2021/03/28 00:46:42;;;;;;;33.00;19.50;;;9.40;99.90;;;;;;4953275;28;20513;-71
2021/03/28 00:49:11;;;;;;;38.08;20.83;;;9.40;99.90;;;;;;4952473;28;20031;-71
2021/03/28 00:51:45;;;;;;;32.28;20.55;;;9.40;99.90;;;;;;4952944;28;20450;-71
2021/03/28 00:54:15;;;;;;;29.95;19.30;;;9.30;99.90;;;;;;4966788;28;20037;-71
2021/03/28 00:56:53;;;;;;;31.73;19.50;;;9.40;99.90;;;;;;4960494;28;20027;-70
2021/03/28 00:59:35;;;;;;;35.30;20.35;;;9.30;99.90;;;;;;4952176;28;20041;-71
2021/03/28 01:02:10;;;;;;;31.15;18.77;;;9.40;99.90;;;;;;4966054;28;20451;-71
2021/03/28 01:04:42;;;;;;;33.28;20.52;;;9.40;99.90;;;;;;4953132;28;20423;-71
2021/03/28 01:07:29;;;;;;;30.63;20.55;;;9.40;99.90;;;;;;4951699;28;20077;-71
2021/03/28 01:10:16;;;;;;;28.20;18.90;;;9.30;99.90;;;;;;4956252;28;20050;-71
2021/03/28 01:12:42;;;;;;;34.15;18.80;;;9.30;99.90;;;;;;4933486;29;20028;-71
2021/03/28 01:15:41;;;;;;;33.15;18.65;;;9.40;99.90;;;;;;4941903;29;20034;-71
2021/03/28 01:18:36;;;;;;;37.40;20.52;;;9.40;99.90;;;;;;4952483;28;20031;-71
2021/03/28 01:21:33;;;;;;;30.15;19.45;;;9.50;99.90;;;;;;4963224;28;20031;-71
2021/03/28 01:24:10;;;;;;;41.45;20.42;;;9.20;99.90;;;;;;4950392;29;20062;-71
2021/03/28 01:26:36;;;;;;;30.27;19.45;;;9.20;99.90;;;;;;4952703;28;20371;-71
2021/03/28 01:29:16;;;;;;;30.38;19.48;;;9.20;99.90;;;;;;4951992;28;20026;-70
2021/03/28 01:31:52;;;;;;;31.98;19.45;;;9.10;99.90;;;;;;4933170;29;20071;-71
2021/03/28 01:34:33;;;;;;;34.88;19.25;;;9.20;99.90;;;;;;4933716;29;20058;-70
2021/03/28 01:37:10;;;;;;;28.90;18.13;;;9.20;99.90;;;;;;4933234;29;20103;-71
2021/03/28 01:39:39;;;;;;;31.55;20.90;;;9.10;99.90;;;;;;4959897;28;20031;-70
2021/03/28 01:42:17;;;;;;;32.03;20.52;;;9.00;99.90;;;;;;4965201;28;20062;-70
2021/03/28 01:45:09;;;;;;;29.90;18.45;;;8.90;99.90;;;;;;4971931;28;20417;-71
2021/03/28 01:47:49;;;;;;;32.63;19.80;;;8.90;99.90;;;;;;4970808;28;20037;-70
2021/03/28 01:50:36;;;;;;;31.23;19.55;;;8.90;99.90;;;;;;4950913;28;20027;-70
2021/03/28 01:53:08;;;;;;;31.60;19.95;;;8.90;99.90;;;;;;4952095;28;20434;-71
2021/03/28 01:55:48;;;;;;;28.38;19.05;;;8.90;99.90;;;;;;4953072;28;20102;-71
2021/03/28 01:58:16;;;;;;;33.47;21.02;;;8.90;99.90;;;;;;4955669;28;20045;-71
2021/03/28 02:01:00;;;;;;;33.65;20.88;;;9.00;99.90;;;;;;4955007;28;20031;-71
2021/03/28 02:03:42;;;;;;;27.10;18.95;;;9.00;99.90;;;;;;4955893;28;20035;-71
2021/03/28 02:07:04;;;;;;;33.00;20.05;;;8.90;99.90;;;;;;4955719;28;20031;-71
2021/03/28 02:09:40;;;;;;;30.05;19.98;;;9.00;99.90;;;;;;4934131;29;20043;-71
2021/03/28 02:12:19;;;;;;;29.98;19.35;;;9.00;99.90;;;;;;4933382;29;20042;-71
2021/03/28 02:14:59;;;;;;;32.08;19.38;;;9.00;99.90;;;;;;4949568;28;20418;-71
2021/03/28 02:17:43;;;;;;;31.58;19.70;;;8.90;99.90;;;;;;4955606;29;20027;-71
2021/03/28 02:20:38;;;;;;;29.90;19.10;;;8.90;99.90;;;;;;4955724;29;20055;-70
2021/03/28 02:23:50;;;;;;;33.28;19.80;;;8.90;99.90;;;;;;4948284;28;20047;-71
2021/03/28 02:26:42;;;;;;;37.00;20.95;;;9.00;99.90;;;;;;4954979;29;20106;-71
2021/03/28 02:29:22;;;;;;;38.58;20.08;;;9.10;99.90;;;;;;4955386;28;20042;-71
2021/03/28 02:32:12;;;;;;;30.98;20.25;;;9.20;99.90;;;;;;4954559;28;20037;-70
2021/03/28 02:35:21;;;;;;;30.25;19.23;;;9.20;99.90;;;;;;4955327;28;20023;-71
2021/03/28 02:37:56;;;;;;;32.88;20.15;;;9.30;99.90;;;;;;4936042;28;20494;-71
2021/03/28 02:40:45;;;;;;;32.50;20.05;;;9.30;99.90;;;;;;4955292;28;20082;-71
2021/03/28 02:43:32;;;;;;;30.23;18.98;;;9.40;99.90;;;;;;4955102;28;20078;-71
2021/03/28 02:46:07;;;;;;;29.52;18.85;;;9.40;99.90;;;;;;4955016;28;20035;-71
2021/03/28 02:49:17;;;;;;;30.30;19.90;;;9.40;99.90;;;;;;4963632;28;20038;-71
2021/03/28 02:52:03;;;;;;;30.52;19.55;;;9.30;99.90;;;;;;4972152;28;20390;-71
2021/03/28 02:54:44;;;;;;;29.73;20.08;;;9.40;99.90;;;;;;4955123;28;20158;-71
2021/03/28 02:57:51;;;;;;;29.15;20.48;;;9.40;99.90;;;;;;4954570;28;20019;-71
2021/03/28 03:00:38;;;;;;;32.17;20.95;;;9.40;99.90;;;;;;4954845;28;20034;-71
2021/03/28 03:03:37;;;;;;;29.52;19.52;;;9.40;99.90;;;;;;4949351;28;20031;-71
2021/03/28 03:06:05;;;;;;;35.78;20.35;;;9.50;99.90;;;;;;4947038;28;20027;-71
2021/03/28 03:08:53;;;;;;;29.27;18.73;;;9.50;99.90;;;;;;4947511;28;20047;-71
2021/03/28 03:11:36;;;;;;;29.33;19.35;;;9.60;99.90;;;;;;4947452;28;20031;-72
2021/03/28 03:14:34;;;;;;;28.45;18.55;;;9.60;99.90;;;;;;4961770;28;20106;-72
2021/03/28 03:17:21;;;;;;;27.45;17.13;;;9.60;99.90;;;;;;4947167;28;20649;-72
2021/03/28 03:20:06;;;;;;;32.45;19.30;;;9.60;99.90;;;;;;4947568;28;20395;-71
2021/03/28 03:22:50;;;;;;;33.13;20.95;;;9.60;99.90;;;;;;4936690;28;20091;-73
2021/03/28 03:25:16;;;;;;;28.73;18.60;;;9.70;99.90;;;;;;4942605;29;20688;-71
2021/03/28 03:28:03;;;;;;;33.40;20.42;;;9.70;99.90;;;;;;4936755;28;20049;-71
2021/03/28 03:30:50;;;;;;;32.80;19.95;;;9.60;99.90;;;;;;4947235;28;20595;-71
2021/03/28 03:33:27;;;;;;;32.15;20.17;;;9.70;99.90;;;;;;4946898;28;20035;-71
2021/03/28 03:36:23;;;;;;;32.75;20.73;;;9.80;99.90;;;;;;4946907;28;20035;-71
2021/03/28 03:39:11;;;;;;;33.20;20.45;;;9.70;99.90;;;;;;4946413;28;20035;-71
2021/03/28 03:41:48;;;;;;;28.83;20.58;;;9.80;99.90;;;;;;4946330;28;20701;-71
2021/03/28 03:44:22;;;;;;;34.10;22.52;;;9.70;99.90;;;;;;4946604;28;20591;-71
2021/03/28 03:47:05;;;;;;;39.28;21.48;;;9.50;99.90;;;;;;4946708;28;20047;-71
2021/03/28 03:49:57;;;;;;;31.30;21.05;;;9.50;99.90;;;;;;4958418;28;20031;-71
2021/03/28 03:52:36;;;;;;;30.63;18.85;;;9.50;99.90;;;;;;4963952;28;20082;-72
2021/03/28 03:55:30;;;;;;;27.70;18.83;;;9.50;99.90;;;;;;4953725;28;20027;-71
2021/03/28 03:58:24;;;;;;;30.67;20.15;;;9.40;99.90;;;;;;4947141;28;20031;-72
2021/03/28 04:00:57;;;;;;;28.27;18.98;;;9.40;99.90;;;;;;4927197;28;20040;-71
2021/03/28 04:03:38;;;;;;;35.20;21.00;;;9.30;99.90;;;;;;4941741;28;20023;-71
2021/03/28 04:06:52;;;;;;;33.75;21.60;;;9.30;99.90;;;;;;4945833;28;20031;-71
2021/03/28 04:09:33;;;;;;;30.27;19.67;;;9.30;99.90;;;;;;4944349;28;20113;-71
2021/03/28 04:12:13;;;;;;;33.00;19.55;;;9.40;99.90;;;;;;4946209;28;20042;-71
2021/03/28 04:14:52;;;;;;;31.50;20.38;;;9.40;99.90;;;;;;4946216;28;20553;-71
2021/03/28 04:17:55;;;;;;;34.13;21.63;;;9.50;99.90;;;;;;4945928;28;20101;-71
2021/03/28 04:20:43;;;;;;;34.58;21.67;;;9.50;99.90;;;;;;4946179;28;20058;-71
2021/03/28 04:23:12;;;;;;;31.90;20.17;;;9.40;99.90;;;;;;4946102;28;20043;-71
2021/03/28 04:25:37;;;;;;;33.15;21.45;;;9.40;99.90;;;;;;4946018;28;20024;-72
2021/03/28 04:28:28;;;;;;;32.53;20.73;;;9.40;99.90;;;;;;4945946;28;20047;-71
2021/03/28 04:30:57;;;;;;;35.67;20.58;;;9.40;99.90;;;;;;4945143;28;20027;-71
2021/03/28 04:33:31;;;;;;;28.88;20.00;;;9.50;99.90;;;;;;4945912;28;20066;-71
2021/03/28 04:36:18;;;;;;;31.02;19.95;;;9.60;99.90;;;;;;4939977;29;20135;-71
2021/03/28 04:39:12;;;;;;;29.35;19.30;;;9.60;99.90;;;;;;4945922;28;20716;-71
2021/03/28 04:41:50;;;;;;;31.80;19.35;;;9.60;99.90;;;;;;4945382;28;20378;-71
2021/03/28 04:44:48;;;;;;;30.98;20.42;;;9.60;99.90;;;;;;4945515;28;20026;-71
2021/03/28 04:47:41;;;;;;;37.30;21.10;;;9.70;99.90;;;;;;4945274;28;20054;-72
2021/03/28 04:50:46;;;;;;;30.10;19.70;;;9.60;99.90;;;;;;4946074;29;20078;-71
2021/03/28 04:53:43;;;;;;;31.13;19.20;;;9.60;99.90;;;;;;4930746;28;20042;-71
2021/03/28 04:56:44;;;;;;;28.33;19.10;;;9.50;99.90;;;;;;4951424;28;20462;-72
2021/03/28 04:59:10;;;;;;;33.90;20.63;;;9.50;99.90;;;;;;4954307;28;20098;-72
2021/03/28 05:02:05;;;;;;;38.92;22.02;;;9.50;99.90;;;;;;4945890;28;20126;-71
2021/03/28 05:04:45;;;;;;;30.27;19.60;;;9.60;99.90;;;;;;4942963;28;20063;-71
2021/03/28 05:07:48;;;;;;;30.88;20.50;;;9.60;99.90;;;;;;4941451;28;20087;-72
2021/03/28 05:10:27;;;;;;;33.90;20.48;;;9.50;99.90;;;;;;4945981;28;20035;-71
2021/03/28 05:12:56;;;;;;;33.10;19.60;;;9.50;99.90;;;;;;4945831;28;20031;-72
2021/03/28 05:15:44;;;;;;;36.53;20.80;;;9.50;99.90;;;;;;4945336;28;20031;-71
2021/03/28 05:18:34;;;;;;;30.50;20.55;;;9.50;99.90;;;;;;4955775;28;20042;-71
2021/03/28 05:21:28;;;;;;;33.38;19.70;;;9.50;99.90;;;;;;4954625;28;20453;-71
2021/03/28 05:24:31;;;;;;;29.27;19.20;;;9.50;99.90;;;;;;4960087;28;20035;-71
2021/03/28 05:27:15;;;;;;;31.67;20.85;;;9.60;99.90;;;;;;4945714;28;20101;-72
2021/03/28 05:30:04;;;;;;;28.70;19.95;;;9.60;99.90;;;;;;4945272;28;20111;-71
2021/03/28 05:32:57;;;;;;;35.22;20.60;;;9.40;99.90;;;;;;4949252;28;20032;-71
2021/03/28 05:35:39;;;;;;;33.22;20.17;;;9.20;99.90;;;;;;4948774;28;20623;-71
2021/03/28 05:38:38;;;;;;;35.03;21.98;;;9.40;99.90;;;;;;4949163;28;20202;-71
2021/03/28 05:41:20;;;;;;;29.65;20.17;;;9.40;99.90;;;;;;4949630;28;20027;-71
2021/03/28 05:44:14;;;;;;;31.83;19.63;;;9.40;99.90;;;;;;4948890;28;20106;-71
2021/03/28 05:46:45;;;;;;;31.05;19.73;;;9.40;99.90;;;;;;4948911;28;20035;-71
2021/03/28 05:49:37;;;;;;;31.60;20.50;;;9.40;99.90;;;;;;4949092;28;20020;-71
2021/03/28 05:52:22;;;;;;;35.85;20.95;;;9.40;99.90;;;;;;4948754;28;20166;-71
2021/03/28 05:55:09;;;;;;;32.03;20.38;;;9.50;99.90;;;;;;4948239;28;20032;-71
2021/03/28 05:57:59;;;;;;;32.50;20.20;;;9.60;99.90;;;;;;4949070;28;20467;-71
2021/03/28 06:00:40;;;;;;;32.90;20.50;;;9.50;99.90;;;;;;4948925;28;20037;-71
2021/03/28 06:03:20;;;;;;;35.47;21.27;;;9.50;99.90;;;;;;4953049;28;20039;-71
2021/03/28 06:06:23;;;;;;;31.27;20.23;;;9.50;99.90;;;;;;4945371;29;20042;-71
2021/03/28 06:08:49;;;;;;;32.55;20.20;;;9.50;99.90;;;;;;4948284;28;20122;-71
2021/03/28 06:11:36;;;;;;;29.52;18.75;;;9.70;99.90;;;;;;4950341;28;20647;-71
2021/03/28 06:14:29;;;;;;;30.48;19.23;;;9.80;99.90;;;;;;4948595;28;20122;-71
2021/03/28 06:17:01;;;;;;;28.98;19.23;;;9.70;99.90;;;;;;4948469;28;20034;-71
2021/03/28 06:19:50;;;;;;;30.50;19.63;;;9.70;99.90;;;;;;4948348;28;20027;-71
2021/03/28 06:22:34;;;;;;;32.05;20.20;;;9.80;99.90;;;;;;4928502;28;20612;-71
2021/03/28 06:25:31;;;;;;;26.65;17.98;;;9.80;99.90;;;;;;4947332;28;20227;-71
2021/03/28 06:28:20;;;;;;;27.40;19.05;;;9.90;99.90;;;;;;4947921;28;20510;-71
2021/03/28 06:31:08;;;;;;;33.75;22.85;;;9.90;99.90;;;;;;4948266;28;20027;-71
2021/03/28 06:33:45;;;;;;;35.08;19.60;;;10.00;99.90;;;;;;4948219;28;20027;-71
2021/03/28 06:36:39;;;;;;;30.58;20.48;;;10.00;99.90;;;;;;4947742;28;20027;-71
2021/03/28 06:39:23;;;;;;;29.25;18.90;;;9.90;99.90;;;;;;4948201;28;20111;-71
2021/03/28 06:41:59;;;;;;;29.60;19.95;;;10.00;99.90;;;;;;4947159;28;20573;-71
2021/03/28 06:45:10;;;;;;;31.45;18.98;;;10.10;99.90;;;;;;4948348;28;20097;-71
2021/03/28 06:47:57;;;;;;;36.13;21.58;;;10.10;99.90;;;;;;4937491;28;20058;-73
2021/03/28 06:51:13;;;;;;;33.35;19.75;;;10.10;99.90;;;;;;4948027;28;20086;-71
2021/03/28 06:53:44;;;;;;;29.58;19.65;;;10.00;99.90;;;;;;4938206;28;20394;-71
2021/03/28 06:56:16;;;;;;;29.33;21.42;;;10.10;99.90;;;;;;4933955;28;20035;-71
2021/03/28 06:59:31;;;;;;;31.25;19.80;;;10.10;99.90;;;;;;4947716;28;20478;-71
2021/03/28 07:02:30;;;;;;;29.80;19.15;;;10.10;99.90;;;;;;4938549;28;20118;-71
2021/03/28 07:05:35;;;;;;;30.38;20.98;;;10.10;99.90;;;;;;4950463;28;20486;-73
2021/03/28 07:08:07;;;;;;;30.45;20.38;;;10.10;99.90;;;;;;4960330;28;20059;-72
2021/03/28 07:10:56;;;;;;;31.65;19.67;;;10.20;99.90;;;;;;4962614;28;20039;-71
2021/03/28 07:14:07;;;;;;;28.30;18.98;;;10.20;99.90;;;;;;4956436;28;20523;-72
2021/03/28 07:16:49;;;;;;;29.52;19.98;;;10.30;99.90;;;;;;4918334;29;20049;-72
2021/03/28 07:19:20;;;;;;;28.58;18.98;;;10.50;99.90;;;;;;4944823;28;20234;-72
2021/03/28 07:22:06;;;;;;;32.50;20.08;;;10.60;99.90;;;;;;4946917;29;20038;-72
2021/03/28 07:24:53;;;;;;;39.28;19.95;;;10.70;99.90;;;;;;4947341;28;20043;-72
2021/03/28 07:27:30;;;;;;;29.63;18.83;;;10.70;99.90;;;;;;4934554;28;20051;-72
2021/03/28 07:30:08;;;;;;;31.40;19.17;;;10.70;99.90;;;;;;4947401;28;20086;-72
2021/03/28 07:33:02;;;;;;;29.90;20.05;;;10.80;99.90;;;;;;4947313;28;20027;-72
2021/03/28 07:35:49;;;;;;;30.98;20.35;;;10.90;99.90;;;;;;4947173;28;20035;-72
2021/03/28 07:38:53;;;;;;;28.27;18.85;;;11.00;99.90;;;;;;4956754;28;20490;-72
2021/03/28 07:41:24;;;;;;;27.45;19.05;;;10.90;99.90;;;;;;4966007;28;20022;-74
2021/03/28 07:43:53;;;;;;;30.52;20.13;;;11.00;99.90;;;;;;4960179;28;20035;-72
2021/03/28 07:46:40;;;;;;;28.83;17.65;;;10.90;99.90;;;;;;4965610;28;20062;-73
2021/03/28 07:49:13;;;;;;;28.42;17.40;;;10.90;99.70;;;;;;4957774;28;20505;-72
2021/03/28 07:52:11;;;;;;;26.45;17.02;;;10.90;99.90;;;;;;4965711;28;20114;-72
2021/03/28 07:55:15;;;;;;;28.17;18.63;;;10.90;99.80;;;;;;4949681;28;20098;-72
2021/03/28 07:58:18;;;;;;;24.25;16.98;;;10.90;99.60;;;;;;4947137;28;20042;-72
2021/03/28 08:01:25;;;;;;;28.05;16.73;;;10.90;99.40;;;;;;4947964;28;20031;-72
2021/03/28 08:04:22;;;;;;;27.20;17.25;;;11.10;99.50;;;;;;4931150;28;20031;-73
2021/03/28 08:07:07;;;;;;;24.38;16.83;;;11.20;99.70;;;;;;4923222;29;20044;-73
2021/03/28 08:10:16;;;;;;;24.60;16.73;;;11.20;99.40;;;;;;4932772;28;20860;-73
2021/03/28 08:12:56;;;;;;;24.75;15.02;;;11.50;99.00;;;;;;4908289;28;20049;-72
2021/03/28 08:15:43;;;;;;;21.73;14.88;;;11.50;97.40;;;;;;4944799;28;20090;-71
2021/03/28 08:18:26;;;;;;;27.27;16.15;;;11.50;97.20;;;;;;4955903;28;20027;-71
2021/03/28 08:21:16;;;;;;;19.75;13.75;;;11.40;97.10;;;;;;4945691;28;20110;-70
2021/03/28 08:24:08;;;;;;;20.55;13.32;;;11.40;96.10;;;;;;4946513;29;20502;-70
2021/03/28 08:26:42;;;;;;;20.67;13.88;;;11.40;96.10;;;;;;4936727;28;20063;-70
2021/03/28 08:29:18;;;;;;;;;;;11.40;96.00;;;;;;4946099;28;20035;-71
2021/03/28 08:31:49;;;;;;;;;;;11.60;95.70;;;;;;4944802;28;20392;-71
2021/03/28 08:34:33;;;;;;;19.25;12.32;;;11.60;95.70;;;;;;4945412;28;19914;-71
2021/03/28 08:37:16;;;;;;;20.55;12.30;;;11.80;95.50;;;;;;4935175;29;20023;-71
2021/03/28 08:39:58;;;;;;;22.13;12.30;;;12.00;95.10;;;;;;4946301;29;20023;-71
2021/03/28 08:43:02;;;;;;;20.67;13.23;;;12.20;95.30;;;;;;4946589;29;20037;-71
2021/03/28 08:45:32;;;;;;;19.95;12.82;;;12.10;94.90;;;;;;4946038;28;20073;-71
2021/03/28 08:48:27;;;;;;;24.42;13.88;;;12.20;95.20;;;;;;4946372;28;20042;-71
2021/03/28 08:51:13;;;;;;;20.95;14.00;;;12.50;94.70;;;;;;4946495;28;20027;-71
2021/03/28 08:53:48;;;;;;;26.38;13.90;;;12.60;95.30;;;;;;4952319;28;20035;-71
2021/03/28 08:56:35;;;;;;;19.77;12.10;;;12.60;94.60;;;;;;4964551;28;20115;-71
2021/03/28 08:59:13;;;;;;;22.52;13.95;;;12.50;94.30;;;;;;4963280;28;20111;-71
2021/03/28 09:01:47;;;;;;;22.40;12.02;;;12.60;94.50;;;;;;4946307;28;20102;-71
2021/03/28 09:04:18;;;;;;;;;;;12.60;94.10;;;;;;4946330;28;20825;-71
2021/03/28 09:07:02;;;;;;;16.55;11.73;;;12.60;94.40;;;;;;4946044;28;19919;-71
2021/03/28 09:09:40;;;;;;;17.90;11.52;;;12.50;94.00;;;;;;4945925;28;20035;-71
2021/03/28 09:12:15;;;;;;;49.65;14.10;;;12.50;93.80;;;;;;4957115;28;20018;-71
2021/03/28 09:15:05;;;;;;;29.95;11.65;;;12.50;93.70;;;;;;4964869;28;20512;-71
2021/03/28 09:18:02;;;;;;;19.27;11.00;;;13.20;92.70;;;;;;4965682;28;20031;-71
2021/03/28 09:20:45;;;;;;;23.30;10.43;;;13.10;92.50;;;;;;4938412;28;20429;-71
2021/03/28 09:23:40;;;;;;;17.40;10.80;;;13.20;92.60;;;;;;4945674;29;20028;-71
2021/03/28 09:26:05;;;;;;;16.97;11.43;;;14.20;91.50;;;;;;4931551;28;20987;-71
2021/03/28 09:28:50;;;;;;;20.92;11.15;;;13.30;91.80;;;;;;4927275;29;20295;-71
2021/03/28 09:31:35;;;;;;;;;;;12.80;92.30;;;;;;4947556;28;20034;-71
2021/03/28 09:34:23;;;;;;;15.73;9.68;;;14.00;91.20;;;;;;4957880;28;19914;-71
2021/03/28 09:36:52;;;;;;;17.23;10.05;;;13.30;91.80;;;;;;4945372;28;20023;-71
2021/03/28 09:39:32;;;;;;;15.18;10.18;;;13.90;91.30;;;;;;4948418;28;20077;-71
2021/03/28 09:42:28;;;;;;;17.08;10.43;;;14.30;90.60;;;;;;4931270;28;20023;-71
2021/03/28 09:44:53;;;;;;;14.82;10.02;;;13.10;91.60;;;;;;4946061;28;20034;-71
2021/03/28 09:47:43;;;;;;;17.15;10.52;;;13.10;91.60;;;;;;4945690;28;20039;-71
2021/03/28 09:50:41;;;;;;;23.42;11.85;;;13.30;91.40;;;;;;4945443;28;20043;-71
2021/03/28 09:53:09;;;;;;;15.82;11.25;;;16.20;88.40;;;;;;4936762;29;20031;-71
2021/03/28 09:55:42;;;;;;;15.57;11.20;;;17.30;85.40;;;;;;4945964;28;20341;-71
2021/03/28 09:58:39;;;;;;;18.83;10.82;;;16.70;86.70;;;;;;4945799;28;20134;-71
2021/03/28 10:01:10;;;;;;;17.38;11.30;;;15.00;88.10;;;;;;4944681;28;20842;-71
2021/03/28 10:03:59;;;;;;;14.02;9.20;;;14.50;90.20;;;;;;4934584;28;20552;-71
2021/03/28 10:06:26;;;;;;;13.30;8.60;;;14.50;89.50;;;;;;4942917;28;20051;-71
2021/03/28 10:09:10;;;;;;;14.00;8.18;;;14.30;89.00;;;;;;4944095;28;20126;-71
2021/03/28 10:11:47;;;;;;;17.58;9.38;;;14.40;89.40;;;;;;4944333;28;20046;-71
2021/03/28 10:14:28;;;;;;;16.27;10.30;;;14.40;88.10;;;;;;4945032;28;20069;-71
2021/03/28 10:17:27;;;;;;;16.92;11.02;;;14.10;87.80;;;;;;4946236;28;20027;-71
2021/03/28 10:20:02;;;;;;;14.70;9.73;;;14.10;88.80;;;;;;4954213;28;20031;-71
2021/03/28 10:23:09;;;;;;;15.05;9.25;;;14.30;88.30;;;;;;4954482;28;20115;-71
2021/03/28 10:25:47;;;;;;;12.77;8.77;;;14.30;88.40;;;;;;4888679;29;20827;-71
2021/03/28 10:28:33;;;;;;;14.35;9.18;;;14.70;87.40;;;;;;4923121;29;20403;-71
2021/03/28 10:31:25;;;;;;;14.73;9.30;;;14.80;86.40;;;;;;4945938;28;20031;-71
2021/03/28 10:34:38;;;;;;;19.20;10.93;;;15.00;85.70;;;;;;4948342;28;20537;-71
2021/03/28 10:37:33;;;;;;;15.05;10.50;;;15.20;86.90;;;;;;4925613;28;20041;-71
2021/03/28 10:40:14;;;;;;;22.83;11.40;;;15.60;85.90;;;;;;4951732;28;20026;-71
2021/03/28 10:43:08;;;;;;;16.95;10.60;;;15.50;85.80;;;;;;4950983;28;20941;-71
2021/03/28 10:46:10;;;;;;;17.37;11.70;;;15.30;85.30;;;;;;4928983;29;20036;-71
2021/03/28 10:49:13;;;;;;;20.77;12.23;;;15.20;85.60;;;;;;4910581;29;20090;-71
2021/03/28 10:52:04;;;;;;;17.73;10.73;;;15.20;85.90;;;;;;4944628;28;20502;-71
2021/03/28 10:54:50;;;;;;;17.40;11.55;;;15.30;86.00;;;;;;4947962;28;20035;-71
2021/03/28 10:57:54;;;;;;;16.73;11.18;;;15.20;85.80;;;;;;4947785;28;20058;-71
2021/03/28 11:00:46;;;;;;;19.25;10.93;;;15.40;85.70;;;;;;4947445;28;20027;-72
2021/03/28 11:03:42;;;;;;;18.05;11.70;;;15.30;85.90;;;;;;4939755;28;20155;-71
2021/03/28 11:06:37;;;;;;;18.30;12.73;;;15.40;86.40;;;;;;4957546;28;20101;-71
2021/03/28 11:09:24;;;;;;;16.02;11.30;;;15.80;86.50;;;;;;4966273;28;20647;-71
2021/03/28 11:11:56;;;;;;;15.70;11.05;;;15.90;84.90;;;;;;4962036;28;20107;-71
2021/03/28 11:14:37;;;;;;;19.30;11.38;;;16.10;85.50;;;;;;4947399;28;20031;-72
2021/03/28 11:17:23;;;;;;;17.67;12.40;;;16.30;85.70;;;;;;4946823;28;20120;-71
2021/03/28 11:19:48;;;;;;;16.55;12.45;;;16.00;85.10;;;;;;4947304;28;20031;-71
2021/03/28 11:22:44;;;;;;;19.55;12.40;;;15.70;85.20;;;;;;4947031;29;20034;-71
2021/03/28 11:25:20;;;;;;;21.17;13.63;;;15.40;85.80;;;;;;4947580;28;20031;-71
2021/03/28 11:28:05;;;;;;;20.75;12.98;;;15.70;86.00;;;;;;4946475;28;20035;-71
2021/03/28 11:30:46;;;;;;;18.98;12.60;;;16.10;85.70;;;;;;4946940;28;20042;-71
2021/03/28 11:33:38;;;;;;;17.45;11.88;;;15.90;84.60;;;;;;4946736;28;20488;-71
2021/03/28 11:36:20;;;;;;;18.08;12.48;;;15.80;85.00;;;;;;4946878;28;20042;-71
2021/03/28 11:39:22;;;;;;;18.30;11.73;;;16.00;85.00;;;;;;4963400;28;20035;-71
2021/03/28 11:41:52;;;;;;;18.58;12.65;;;15.90;85.50;;;;;;4963414;28;20030;-71
2021/03/28 11:44:40;;;;;;;17.52;11.95;;;15.80;85.80;;;;;;4946920;28;20030;-71
2021/03/28 11:47:21;;;;;;;19.02;13.05;;;15.90;87.20;;;;;;4946807;28;20626;-71
2021/03/28 11:50:01;;;;;;;17.42;12.38;;;15.90;85.90;;;;;;4946906;28;20042;-71
2021/03/28 11:52:49;;;;;;;22.10;13.73;;;15.80;85.50;;;;;;4946295;28;20047;-71
2021/03/28 11:55:33;;;;;;;18.55;12.93;;;16.00;86.00;;;;;;4946722;28;20031;-71
2021/03/28 11:58:17;;;;;;;18.23;11.68;;;16.10;84.70;;;;;;4946366;28;20046;-71
2021/03/28 12:00:57;;;;;;;15.90;11.30;;;16.20;85.10;;;;;;4946913;28;20031;-71
2021/03/28 12:03:28;;;;;;;19.05;10.82;;;16.20;84.30;;;;;;4933873;29;20894;-71
2021/03/28 12:06:03;;;;;;;20.35;12.23;;;16.40;84.70;;;;;;4943864;28;20086;-71
2021/03/28 12:08:30;;;;;;;;;;;16.70;84.70;;;;;;4946260;29;20102;-71
2021/03/28 12:11:31;;;;;;;19.48;13.25;;;16.60;82.60;;;;;;4946189;28;19914;-71
2021/03/28 12:14:20;;;;;;;17.80;12.30;;;16.50;83.50;;;;;;4938412;28;20034;-71
2021/03/28 12:17:11;;;;;;;19.55;12.35;;;16.50;82.60;;;;;;4923087;29;20109;-71
2021/03/28 12:19:53;;;;;;;20.02;11.35;;;16.70;82.50;;;;;;4927329;29;20024;-71
2021/03/28 12:22:43;;;;;;;16.42;11.52;;;16.60;81.40;;;;;;4935062;28;20490;-71
2021/03/28 12:25:15;;;;;;;20.00;10.35;;;16.70;81.80;;;;;;4945723;28;20429;-71
2021/03/28 12:27:43;;;;;;;17.73;11.05;;;16.90;82.30;;;;;;4945614;28;20486;-71
2021/03/28 12:30:27;;;;;;;16.45;10.68;;;16.90;81.80;;;;;;4945979;29;20031;-71
2021/03/28 12:33:02;;;;;;;14.10;9.18;;;17.00;81.30;;;;;;4946017;29;20019;-71
2021/03/28 12:35:33;;;;;;;19.55;11.05;;;17.20;80.80;;;;;;4945524;28;20038;-72
2021/03/28 12:38:18;;;;;;;16.10;10.32;;;17.40;80.30;;;;;;4961428;28;20046;-71
2021/03/28 12:40:46;;;;;;;16.42;10.95;;;17.30;79.70;;;;;;4964589;28;20085;-71
2021/03/28 12:43:34;;;;;;;14.68;10.93;;;17.20;77.90;;;;;;4947112;28;20510;-71
2021/03/28 12:46:40;;;;;;;16.75;9.80;;;17.40;80.60;;;;;;4945690;28;20348;-72
2021/03/28 12:49:09;;;;;;;19.45;9.95;;;17.60;77.10;;;;;;4926796;29;20056;-71
2021/03/28 12:51:42;;;;;;;13.00;9.48;;;17.70;77.70;;;;;;4928965;28;20065;-71
2021/03/28 12:54:20;;;;;;;17.90;10.00;;;17.70;77.00;;;;;;4945926;28;20110;-71
2021/03/28 12:56:51;;;;;;;18.17;9.95;;;17.60;77.30;;;;;;4945451;28;20734;-72
2021/03/28 12:59:47;;;;;;;13.77;9.32;;;17.60;75.80;;;;;;4945446;28;20034;-71
2021/03/28 13:02:32;;;;;;;12.85;9.23;;;17.60;75.70;;;;;;4936478;28;20703;-71
2021/03/28 13:05:25;;;;;;;14.13;9.70;;;17.80;75.80;;;;;;4951259;28;20098;-71
2021/03/28 13:07:54;;;;;;;13.20;9.02;;;17.70;76.00;;;;;;4952133;28;20051;-72
2021/03/28 13:10:20;;;;;;;15.45;11.25;;;17.80;76.80;;;;;;4945878;28;20066;-71
2021/03/28 13:13:00;;;;;;;12.90;9.18;;;18.00;76.90;;;;;;4945704;28;20522;-71
2021/03/28 13:15:50;;;;;;;13.82;9.85;;;18.00;76.00;;;;;;4945257;28;20023;-72
2021/03/28 13:18:25;;;;;;;19.65;9.88;;;18.10;76.80;;;;;;4945008;28;20044;-72
2021/03/28 13:20:50;;;;;;;14.60;9.60;;;18.20;76.10;;;;;;4945464;28;20043;-71
2021/03/28 13:23:35;;;;;;;16.52;10.90;;;18.10;76.00;;;;;;4956343;28;20034;-72
2021/03/28 13:26:09;;;;;;;19.88;12.90;;;18.00;74.30;;;;;;4964351;28;20026;-71
2021/03/28 13:28:35;;;;;;;20.23;11.07;;;18.20;74.50;;;;;;4948670;28;20522;-71
2021/03/28 13:31:25;;;;;;;15.85;9.45;;;18.00;75.50;;;;;;4944701;28;20047;-71
2021/03/28 13:33:54;;;;;;;14.40;9.60;;;18.30;74.10;;;;;;4959660;28;20038;-72
2021/03/28 13:36:28;;;;;;;46.50;11.45;;;18.30;75.10;;;;;;4945714;29;20490;-72
2021/03/28 13:39:06;;;;;;;13.98;9.30;;;18.40;74.50;;;;;;4945081;28;20050;-72
2021/03/28 13:41:36;;;;;;;16.45;9.30;;;18.30;73.00;;;;;;4944850;28;20070;-72
2021/03/28 13:44:07;;;;;;;13.98;10.00;;;18.30;73.00;;;;;;4944783;29;20359;-72
2021/03/28 13:46:33;;;;;;;17.50;10.07;;;18.30;72.70;;;;;;4945067;28;20023;-72
2021/03/28 13:49:06;;;;;;;14.75;11.73;;;18.60;72.50;;;;;;4950676;28;20659;-72
2021/03/28 13:51:33;;;;;;;12.63;9.43;;;18.70;71.70;;;;;;4958905;28;20568;-71
2021/03/28 13:54:05;;;;;;;15.30;10.57;;;18.60;72.40;;;;;;4968054;28;20619;-72
2021/03/28 13:56:40;;;;;;;18.20;10.07;;;18.50;71.60;;;;;;4968292;28;20569;-72
2021/03/28 13:59:27;;;;;;;14.65;9.80;;;18.60;71.40;;;;;;4956465;28;20031;-72